sensor_id;sensor_type;location;lat;lon;timestamp;P1;durP1;ratioP1;P2;durP2;ratioP2
74483;SDS011;62942;52.462;10.846;2022-09-28T00:00:01;10.4;;;12.9;;
74483;SDS011;62942;52.462;10.846;2022-09-28T00:01:12;9.6;;;11.7;;
74483;SDS011;62942;52.462;10.846;2022-09-28T00:02:11;10;;;11.7;;
74483;SDS011;62942;52.462;10.846;2022-09-28T00:03:11;10.1;;;12.9;;
74483;SDS011;62942;52.462;10.846;2022-09-28T00:04:21;10.2;;;12.6;;
74483;SDS011;62942;52.462;10.846;2022-09-28T00:05:31;10.4;;;13;;
74483;SDS011;62942;52.462;10.846;2022-09-28T00:06:31;10.4;;;13.6;;
74483;SDS011;62942;52.462;10.846;2022-09-28T00:07:41;11.2;;;15.2;;
74483;SDS011;62942;52.462;10.846;2022-09-28T00:08:51;11.2;;;14.4;;
74483;SDS011;62942;52.462;10.846;2022-09-28T00:10:01;11.3;;;15;;
74483;SDS011;62942;52.462;10.846;2022-09-28T00:11:12;11.1;;;14.2;;
74483;SDS011;62942;52.462;10.846;2022-09-28T00:12:21;11.7;;;14.5;;
74483;SDS011;62942;52.462;10.846;2022-09-28T00:13:32;11.9;;;15.5;;
74483;SDS011;62942;52.462;10.846;2022-09-28T00:14:41;12;;;15.6;;
74483;SDS011;62942;52.462;10.846;2022-09-28T00:16:00;12;;;14.5;;
74483;SDS011;62942;52.462;10.846;2022-09-28T00:17:01;11.8;;;15;;
74483;SDS011;62942;52.462;10.846;2022-09-28T00:18:01;12.2;;;15.8;;
74483;SDS011;62942;52.462;10.846;2022-09-28T00:19:12;12.3;;;15.2;;
74483;SDS011;62942;52.462;10.846;2022-09-28T00:20:21;12.3;;;15.8;;
74483;SDS011;62942;52.462;10.846;2022-09-28T00:21:32;12.2;;;15.8;;
74483;SDS011;62942;52.462;10.846;2022-09-28T00:22:41;12.1;;;15;;
74483;SDS011;62942;52.462;10.846;2022-09-28T00:23:51;12.4;;;16.3;;
74483;SDS011;62942;52.462;10.846;2022-09-28T00:24:51;12.1;;;15.7;;
74483;SDS011;62942;52.462;10.846;2022-09-28T00:26:01;12.7;;;16;;
74483;SDS011;62942;52.462;10.846;2022-09-28T00:27:11;12.1;;;15.4;;
74483;SDS011;62942;52.462;10.846;2022-09-28T00:28:21;12.7;;;17.4;;
74483;SDS011;62942;52.462;10.846;2022-09-28T00:29:22;12.3;;;15.3;;
74483;SDS011;62942;52.462;10.846;2022-09-28T00:30:31;12.7;;;16;;
74483;SDS011;62942;52.462;10.846;2022-09-28T00:31:41;12.2;;;15;;
74483;SDS011;62942;52.462;10.846;2022-09-28T00:32:41;12.7;;;16;;
74483;SDS011;62942;52.462;10.846;2022-09-28T00:33:51;12.5;;;15.9;;
74483;SDS011;62942;52.462;10.846;2022-09-28T00:35:01;12.3;;;15.3;;
74483;SDS011;62942;52.462;10.846;2022-09-28T00:36:11;12.8;;;15.7;;
74483;SDS011;62942;52.462;10.846;2022-09-28T00:37:12;12.8;;;16.3;;
74483;SDS011;62942;52.462;10.846;2022-09-28T00:38:24;12.7;;;15.7;;
74483;SDS011;62942;52.462;10.846;2022-09-28T00:39:21;13.1;;;16.2;;
74483;SDS011;62942;52.462;10.846;2022-09-28T00:40:31;12.7;;;15.9;;
74483;SDS011;62942;52.462;10.846;2022-09-28T00:41:41;13.7;;;17.5;;
74483;SDS011;62942;52.462;10.846;2022-09-28T00:42:51;14.2;;;18.2;;
74483;SDS011;62942;52.462;10.846;2022-09-28T00:44:36;14;;;17.6;;
74483;SDS011;62942;52.462;10.846;2022-09-28T00:45:11;14.2;;;17.8;;
74483;SDS011;62942;52.462;10.846;2022-09-28T00:46:23;14.4;;;17.5;;
74483;SDS011;62942;52.462;10.846;2022-09-28T00:47:40;14.7;;;18.6;;
74483;SDS011;62942;52.462;10.846;2022-09-28T00:48:43;14.7;;;19.2;;
74483;SDS011;62942;52.462;10.846;2022-09-28T00:49:52;14.9;;;19.6;;
74483;SDS011;62942;52.462;10.846;2022-09-28T00:51:03;14.8;;;19.5;;
74483;SDS011;62942;52.462;10.846;2022-09-28T00:52:01;14.6;;;18.9;;
74483;SDS011;62942;52.462;10.846;2022-09-28T00:53:02;15.1;;;19.5;;
74483;SDS011;62942;52.462;10.846;2022-09-28T00:54:11;15.5;;;20.4;;
74483;SDS011;62942;52.462;10.846;2022-09-28T00:55:24;15.4;;;20.9;;
74483;SDS011;62942;52.462;10.846;2022-09-28T00:56:31;15.6;;;20.8;;
74483;SDS011;62942;52.462;10.846;2022-09-28T00:57:42;16;;;21.1;;
74483;SDS011;62942;52.462;10.846;2022-09-28T00:58:51;16;;;21.6;;
74483;SDS011;62942;52.462;10.846;2022-09-28T00:59:51;15.8;;;20.8;;
74483;SDS011;62942;52.462;10.846;2022-09-28T01:01:01;16.2;;;24.6;;
74483;SDS011;62942;52.462;10.846;2022-09-28T01:02:01;16.6;;;22.4;;
74483;SDS011;62942;52.462;10.846;2022-09-28T01:03:11;16.3;;;21.5;;
74483;SDS011;62942;52.462;10.846;2022-09-28T01:04:21;16.7;;;23.4;;
74483;SDS011;62942;52.462;10.846;2022-09-28T01:05:31;17.3;;;23.7;;
74483;SDS011;62942;52.462;10.846;2022-09-28T01:06:41;17;;;23.6;;
74483;SDS011;62942;52.462;10.846;2022-09-28T01:07:51;17.2;;;23.3;;
74483;SDS011;62942;52.462;10.846;2022-09-28T01:08:52;17.3;;;23.8;;
74483;SDS011;62942;52.462;10.846;2022-09-28T01:10:02;17.5;;;23.4;;
74483;SDS011;62942;52.462;10.846;2022-09-28T01:11:11;18.2;;;26.2;;
74483;SDS011;62942;52.462;10.846;2022-09-28T01:12:11;18;;;24.8;;
74483;SDS011;62942;52.462;10.846;2022-09-28T01:13:21;18.5;;;25.7;;
74483;SDS011;62942;52.462;10.846;2022-09-28T01:14:31;18.5;;;26.8;;
74483;SDS011;62942;52.462;10.846;2022-09-28T01:15:31;19;;;28.3;;
74483;SDS011;62942;52.462;10.846;2022-09-28T01:16:43;18.3;;;26.6;;
74483;SDS011;62942;52.462;10.846;2022-09-28T01:17:55;18.5;;;26.4;;
74483;SDS011;62942;52.462;10.846;2022-09-28T01:19:03;18.7;;;28.9;;
74483;SDS011;62942;52.462;10.846;2022-09-28T01:20:47;18.3;;;25.8;;
74483;SDS011;62942;52.462;10.846;2022-09-28T01:21:21;18.6;;;26.2;;
74483;SDS011;62942;52.462;10.846;2022-09-28T01:22:36;19.8;;;28.7;;
74483;SDS011;62942;52.462;10.846;2022-09-28T01:24:38;19.5;;;27.7;;
74483;SDS011;62942;52.462;10.846;2022-09-28T01:24:41;19.7;;;28.8;;
74483;SDS011;62942;52.462;10.846;2022-09-28T01:25:44;19.5;;;27.8;;
74483;SDS011;62942;52.462;10.846;2022-09-28T01:26:59;19.7;;;30.3;;
74483;SDS011;62942;52.462;10.846;2022-09-28T01:28:02;20.2;;;31.6;;
74483;SDS011;62942;52.462;10.846;2022-09-28T01:29:02;20.2;;;31;;
74483;SDS011;62942;52.462;10.846;2022-09-28T01:30:12;19.8;;;29.8;;
74483;SDS011;62942;52.462;10.846;2022-09-28T01:31:12;19.5;;;29.6;;
74483;SDS011;62942;52.462;10.846;2022-09-28T01:32:23;20;;;28.9;;
74483;SDS011;62942;52.462;10.846;2022-09-28T01:33:33;18.9;;;27.8;;
74483;SDS011;62942;52.462;10.846;2022-09-28T01:34:43;19.8;;;29.8;;
74483;SDS011;62942;52.462;10.846;2022-09-28T01:35:52;20.6;;;33.1;;
74483;SDS011;62942;52.462;10.846;2022-09-28T01:37:02;20.3;;;31.1;;
74483;SDS011;62942;52.462;10.846;2022-09-28T01:38:12;20.5;;;31.3;;
74483;SDS011;62942;52.462;10.846;2022-09-28T01:39:11;21;;;31.6;;
74483;SDS011;62942;52.462;10.846;2022-09-28T01:40:21;21.1;;;33.2;;
74483;SDS011;62942;52.462;10.846;2022-09-28T01:41:31;21.9;;;35.3;;
74483;SDS011;62942;52.462;10.846;2022-09-28T01:42:42;21.3;;;33.9;;
74483;SDS011;62942;52.462;10.846;2022-09-28T01:43:52;21.3;;;32.8;;
74483;SDS011;62942;52.462;10.846;2022-09-28T01:45:03;21.1;;;33.7;;
74483;SDS011;62942;52.462;10.846;2022-09-28T01:46:12;21.7;;;35.2;;
74483;SDS011;62942;52.462;10.846;2022-09-28T01:47:21;21.9;;;34;;
74483;SDS011;62942;52.462;10.846;2022-09-28T01:48:32;21;;;32.5;;
74483;SDS011;62942;52.462;10.846;2022-09-28T01:49:32;21.1;;;32;;
74483;SDS011;62942;52.462;10.846;2022-09-28T01:50:41;21;;;32.4;;
74483;SDS011;62942;52.462;10.846;2022-09-28T01:51:52;22.3;;;36.9;;
74483;SDS011;62942;52.462;10.846;2022-09-28T01:53:03;22.5;;;36.2;;
74483;SDS011;62942;52.462;10.846;2022-09-28T01:54:12;23.1;;;38.7;;
74483;SDS011;62942;52.462;10.846;2022-09-28T01:55:23;23.5;;;38.3;;
74483;SDS011;62942;52.462;10.846;2022-09-28T01:56:33;22.7;;;38.5;;
74483;SDS011;62942;52.462;10.846;2022-09-28T01:57:41;22.9;;;38;;
74483;SDS011;62942;52.462;10.846;2022-09-28T01:58:52;23.4;;;38.7;;
74483;SDS011;62942;52.462;10.846;2022-09-28T02:00:03;23.3;;;38.2;;
74483;SDS011;62942;52.462;10.846;2022-09-28T02:01:12;22.5;;;37.5;;
74483;SDS011;62942;52.462;10.846;2022-09-28T02:02:22;22.8;;;39.4;;
74483;SDS011;62942;52.462;10.846;2022-09-28T02:03:32;22.7;;;39.3;;
74483;SDS011;62942;52.462;10.846;2022-09-28T02:04:41;23.1;;;39.4;;
74483;SDS011;62942;52.462;10.846;2022-09-28T02:05:42;23.7;;;40;;
74483;SDS011;62942;52.462;10.846;2022-09-28T02:06:52;22.7;;;37.7;;
74483;SDS011;62942;52.462;10.846;2022-09-28T02:07:52;22.7;;;40.6;;
74483;SDS011;62942;52.462;10.846;2022-09-28T02:09:02;23.1;;;41.6;;
74483;SDS011;62942;52.462;10.846;2022-09-28T02:10:12;23.1;;;40.1;;
74483;SDS011;62942;52.462;10.846;2022-09-28T02:11:21;22.4;;;38.5;;
74483;SDS011;62942;52.462;10.846;2022-09-28T02:12:32;23.1;;;39.6;;
74483;SDS011;62942;52.462;10.846;2022-09-28T02:13:41;23.3;;;40.7;;
74483;SDS011;62942;52.462;10.846;2022-09-28T02:14:51;22.7;;;38.6;;
74483;SDS011;62942;52.462;10.846;2022-09-28T02:16:02;22.9;;;38.7;;
74483;SDS011;62942;52.462;10.846;2022-09-28T02:17:11;23.3;;;41;;
74483;SDS011;62942;52.462;10.846;2022-09-28T02:18:21;23.1;;;40;;
74483;SDS011;62942;52.462;10.846;2022-09-28T02:19:22;22.7;;;38.6;;
74483;SDS011;62942;52.462;10.846;2022-09-28T02:20:31;22.3;;;37.5;;
74483;SDS011;62942;52.462;10.846;2022-09-28T02:21:41;22.9;;;41.3;;
74483;SDS011;62942;52.462;10.846;2022-09-28T02:22:52;22.2;;;37.9;;
74483;SDS011;62942;52.462;10.846;2022-09-28T02:23:52;22.4;;;40.4;;
74483;SDS011;62942;52.462;10.846;2022-09-28T02:25:02;23.5;;;42.2;;
74483;SDS011;62942;52.462;10.846;2022-09-28T02:26:12;22.9;;;40.2;;
74483;SDS011;62942;52.462;10.846;2022-09-28T02:27:11;24;;;42.9;;
74483;SDS011;62942;52.462;10.846;2022-09-28T02:28:21;23.4;;;41.6;;
74483;SDS011;62942;52.462;10.846;2022-09-28T02:29:31;23.1;;;43.2;;
74483;SDS011;62942;52.462;10.846;2022-09-28T02:30:42;22.9;;;41.2;;
74483;SDS011;62942;52.462;10.846;2022-09-28T02:31:51;22.8;;;40.1;;
74483;SDS011;62942;52.462;10.846;2022-09-28T02:32:51;23.3;;;41.1;;
74483;SDS011;62942;52.462;10.846;2022-09-28T02:33:51;22.5;;;42.1;;
74483;SDS011;62942;52.462;10.846;2022-09-28T02:35:01;22.6;;;41.3;;
74483;SDS011;62942;52.462;10.846;2022-09-28T02:36:01;23.4;;;43.2;;
74483;SDS011;62942;52.462;10.846;2022-09-28T02:37:11;24.2;;;45.7;;
74483;SDS011;62942;52.462;10.846;2022-09-28T02:38:11;24.5;;;45.7;;
74483;SDS011;62942;52.462;10.846;2022-09-28T02:39:21;24.5;;;48;;
74483;SDS011;62942;52.462;10.846;2022-09-28T02:40:32;24.6;;;50.2;;
74483;SDS011;62942;52.462;10.846;2022-09-28T02:41:47;23.3;;;42.3;;
74483;SDS011;62942;52.462;10.846;2022-09-28T02:42:44;22.7;;;42;;
74483;SDS011;62942;52.462;10.846;2022-09-28T02:43:51;22.3;;;40.8;;
74483;SDS011;62942;52.462;10.846;2022-09-28T02:45:05;24;;;43.6;;
74483;SDS011;62942;52.462;10.846;2022-09-28T02:46:21;24.8;;;46.3;;
74483;SDS011;62942;52.462;10.846;2022-09-28T02:47:13;22.8;;;43.1;;
74483;SDS011;62942;52.462;10.846;2022-09-28T02:48:24;23.7;;;45.4;;
74483;SDS011;62942;52.462;10.846;2022-09-28T02:49:32;22.3;;;41.3;;
74483;SDS011;62942;52.462;10.846;2022-09-28T02:50:44;22.4;;;41.9;;
74483;SDS011;62942;52.462;10.846;2022-09-28T02:51:43;23.2;;;42.3;;
74483;SDS011;62942;52.462;10.846;2022-09-28T02:52:58;23.3;;;43.7;;
74483;SDS011;62942;52.462;10.846;2022-09-28T02:54:12;24.3;;;45.4;;
74483;SDS011;62942;52.462;10.846;2022-09-28T02:55:12;24.1;;;46.1;;
74483;SDS011;62942;52.462;10.846;2022-09-28T02:56:16;23.5;;;44;;
74483;SDS011;62942;52.462;10.846;2022-09-28T02:57:12;24.1;;;45.7;;
74483;SDS011;62942;52.462;10.846;2022-09-28T02:58:24;22.4;;;43.1;;
74483;SDS011;62942;52.462;10.846;2022-09-28T02:59:25;24;;;44.8;;
74483;SDS011;62942;52.462;10.846;2022-09-28T03:00:31;24.2;;;45;;
74483;SDS011;62942;52.462;10.846;2022-09-28T03:01:33;22.9;;;43.1;;
74483;SDS011;62942;52.462;10.846;2022-09-28T03:02:44;23.9;;;44.8;;
74483;SDS011;62942;52.462;10.846;2022-09-28T03:03:43;26.3;;;51;;
74483;SDS011;62942;52.462;10.846;2022-09-28T03:04:56;25.9;;;51.8;;
74483;SDS011;62942;52.462;10.846;2022-09-28T03:05:52;25.9;;;51.9;;
74483;SDS011;62942;52.462;10.846;2022-09-28T03:07:02;25.4;;;51.3;;
74483;SDS011;62942;52.462;10.846;2022-09-28T03:08:13;25.9;;;52.7;;
74483;SDS011;62942;52.462;10.846;2022-09-28T03:09:12;25.8;;;52;;
74483;SDS011;62942;52.462;10.846;2022-09-28T03:10:12;25.7;;;52.5;;
74483;SDS011;62942;52.462;10.846;2022-09-28T03:11:21;25.9;;;55.1;;
74483;SDS011;62942;52.462;10.846;2022-09-28T03:12:31;26.3;;;55.7;;
74483;SDS011;62942;52.462;10.846;2022-09-28T03:13:31;26.9;;;57.1;;
74483;SDS011;62942;52.462;10.846;2022-09-28T03:14:41;25.7;;;52.6;;
74483;SDS011;62942;52.462;10.846;2022-09-28T03:15:41;26.4;;;56.4;;
74483;SDS011;62942;52.462;10.846;2022-09-28T03:16:51;25.3;;;53.2;;
74483;SDS011;62942;52.462;10.846;2022-09-28T03:17:51;24.8;;;50.9;;
74483;SDS011;62942;52.462;10.846;2022-09-28T03:19:01;25.4;;;54.5;;
74483;SDS011;62942;52.462;10.846;2022-09-28T03:20:01;24.6;;;52.1;;
74483;SDS011;62942;52.462;10.846;2022-09-28T03:21:01;24.6;;;53.7;;
74483;SDS011;62942;52.462;10.846;2022-09-28T03:22:11;25.1;;;53.3;;
74483;SDS011;62942;52.462;10.846;2022-09-28T03:23:11;24.8;;;53.9;;
74483;SDS011;62942;52.462;10.846;2022-09-28T03:24:21;24.7;;;52.2;;
74483;SDS011;62942;52.462;10.846;2022-09-28T03:25:31;24.8;;;54;;
74483;SDS011;62942;52.462;10.846;2022-09-28T03:26:41;25.1;;;53.1;;
74483;SDS011;62942;52.462;10.846;2022-09-28T03:27:51;24;;;50.5;;
74483;SDS011;62942;52.462;10.846;2022-09-28T03:29:01;24.3;;;51.6;;
74483;SDS011;62942;52.462;10.846;2022-09-28T03:30:11;24.8;;;53;;
74483;SDS011;62942;52.462;10.846;2022-09-28T03:31:21;24.2;;;49.8;;
74483;SDS011;62942;52.462;10.846;2022-09-28T03:32:31;24.2;;;48.2;;
74483;SDS011;62942;52.462;10.846;2022-09-28T03:33:41;23.5;;;47.4;;
74483;SDS011;62942;52.462;10.846;2022-09-28T03:34:51;23.4;;;45.9;;
74483;SDS011;62942;52.462;10.846;2022-09-28T03:36:01;23.7;;;46.6;;
74483;SDS011;62942;52.462;10.846;2022-09-28T03:37:11;22.5;;;45.7;;
74483;SDS011;62942;52.462;10.846;2022-09-28T03:38:21;22.8;;;43.7;;
74483;SDS011;62942;52.462;10.846;2022-09-28T03:39:31;21.7;;;41.7;;
74483;SDS011;62942;52.462;10.846;2022-09-28T03:40:41;21.8;;;42.7;;
74483;SDS011;62942;52.462;10.846;2022-09-28T03:41:51;21.9;;;41.8;;
74483;SDS011;62942;52.462;10.846;2022-09-28T03:43:01;21.4;;;40.7;;
74483;SDS011;62942;52.462;10.846;2022-09-28T03:44:11;20.9;;;41;;
74483;SDS011;62942;52.462;10.846;2022-09-28T03:45:21;20.5;;;40.2;;
74483;SDS011;62942;52.462;10.846;2022-09-28T03:46:31;20.9;;;38.8;;
74483;SDS011;62942;52.462;10.846;2022-09-28T03:47:43;19.9;;;37.1;;
74483;SDS011;62942;52.462;10.846;2022-09-28T03:48:51;19.9;;;36.7;;
74483;SDS011;62942;52.462;10.846;2022-09-28T03:50:01;19.1;;;33.9;;
74483;SDS011;62942;52.462;10.846;2022-09-28T03:51:02;18.7;;;34.1;;
74483;SDS011;62942;52.462;10.846;2022-09-28T03:52:11;18.1;;;31.8;;
74483;SDS011;62942;52.462;10.846;2022-09-28T03:53:21;18.5;;;30.2;;
74483;SDS011;62942;52.462;10.846;2022-09-28T03:54:31;17.8;;;30.6;;
74483;SDS011;62942;52.462;10.846;2022-09-28T03:55:41;17.9;;;32.6;;
74483;SDS011;62942;52.462;10.846;2022-09-28T03:56:51;17.7;;;29.6;;
74483;SDS011;62942;52.462;10.846;2022-09-28T03:58:01;17.3;;;28.6;;
74483;SDS011;62942;52.462;10.846;2022-09-28T03:59:11;17.3;;;32.1;;
74483;SDS011;62942;52.462;10.846;2022-09-28T04:00:21;17.1;;;27.8;;
74483;SDS011;62942;52.462;10.846;2022-09-28T04:01:31;17;;;29.4;;
74483;SDS011;62942;52.462;10.846;2022-09-28T04:02:41;17.4;;;28.8;;
74483;SDS011;62942;52.462;10.846;2022-09-28T04:03:52;16.3;;;27;;
74483;SDS011;62942;52.462;10.846;2022-09-28T04:05:01;16.6;;;26.4;;
74483;SDS011;62942;52.462;10.846;2022-09-28T04:06:11;16.5;;;25.4;;
74483;SDS011;62942;52.462;10.846;2022-09-28T04:07:11;16.3;;;25.6;;
74483;SDS011;62942;52.462;10.846;2022-09-28T04:08:21;15.7;;;25.6;;
74483;SDS011;62942;52.462;10.846;2022-09-28T04:09:31;15.4;;;25.4;;
74483;SDS011;62942;52.462;10.846;2022-09-28T04:10:41;15.8;;;24.7;;
74483;SDS011;62942;52.462;10.846;2022-09-28T04:11:51;15.4;;;24;;
74483;SDS011;62942;52.462;10.846;2022-09-28T04:13:01;15.5;;;23.9;;
74483;SDS011;62942;52.462;10.846;2022-09-28T04:14:11;15;;;22.8;;
74483;SDS011;62942;52.462;10.846;2022-09-28T04:15:11;14.9;;;21.9;;
74483;SDS011;62942;52.462;10.846;2022-09-28T04:16:21;14.4;;;22.1;;
74483;SDS011;62942;52.462;10.846;2022-09-28T04:17:31;14.3;;;21.7;;
74483;SDS011;62942;52.462;10.846;2022-09-28T04:18:41;13.3;;;19.9;;
74483;SDS011;62942;52.462;10.846;2022-09-28T04:19:41;14;;;20.9;;
74483;SDS011;62942;52.462;10.846;2022-09-28T04:20:59;13.3;;;19.9;;
74483;SDS011;62942;52.462;10.846;2022-09-28T04:22:01;13.2;;;19.7;;
74483;SDS011;62942;52.462;10.846;2022-09-28T04:23:01;13.2;;;19.7;;
74483;SDS011;62942;52.462;10.846;2022-09-28T04:24:11;13.3;;;20.1;;
74483;SDS011;62942;52.462;10.846;2022-09-28T04:25:11;13.6;;;20.6;;
74483;SDS011;62942;52.462;10.846;2022-09-28T04:26:22;13.5;;;19.5;;
74483;SDS011;62942;52.462;10.846;2022-09-28T04:27:21;13.3;;;19.2;;
74483;SDS011;62942;52.462;10.846;2022-09-28T04:28:31;13.3;;;20.1;;
74483;SDS011;62942;52.462;10.846;2022-09-28T04:29:31;13.1;;;18.8;;
74483;SDS011;62942;52.462;10.846;2022-09-28T04:30:41;13;;;18.4;;
74483;SDS011;62942;52.462;10.846;2022-09-28T04:31:41;12.6;;;18.9;;
74483;SDS011;62942;52.462;10.846;2022-09-28T04:32:51;13.9;;;19.9;;
74483;SDS011;62942;52.462;10.846;2022-09-28T04:33:51;13.6;;;19.5;;
74483;SDS011;62942;52.462;10.846;2022-09-28T04:35:01;14.3;;;20.8;;
74483;SDS011;62942;52.462;10.846;2022-09-28T04:36:11;14.7;;;21.4;;
74483;SDS011;62942;52.462;10.846;2022-09-28T04:37:21;15;;;21.5;;
74483;SDS011;62942;52.462;10.846;2022-09-28T04:38:31;15.2;;;23;;
74483;SDS011;62942;52.462;10.846;2022-09-28T04:39:31;15;;;21.9;;
74483;SDS011;62942;52.462;10.846;2022-09-28T04:40:41;14.6;;;21.8;;
74483;SDS011;62942;52.462;10.846;2022-09-28T04:41:41;15.5;;;22.5;;
74483;SDS011;62942;52.462;10.846;2022-09-28T04:42:41;14.6;;;20.5;;
74483;SDS011;62942;52.462;10.846;2022-09-28T04:43:51;13.5;;;19.5;;
74483;SDS011;62942;52.462;10.846;2022-09-28T04:45:01;13.6;;;18.5;;
74483;SDS011;62942;52.462;10.846;2022-09-28T04:46:11;13.3;;;18.7;;
74483;SDS011;62942;52.462;10.846;2022-09-28T04:47:21;13;;;19.1;;
74483;SDS011;62942;52.462;10.846;2022-09-28T04:48:21;13.7;;;19;;
74483;SDS011;62942;52.462;10.846;2022-09-28T04:49:31;13.2;;;19.2;;
74483;SDS011;62942;52.462;10.846;2022-09-28T04:50:41;13;;;18;;
74483;SDS011;62942;52.462;10.846;2022-09-28T04:51:41;13.1;;;18.9;;
74483;SDS011;62942;52.462;10.846;2022-09-28T04:52:41;13.2;;;20.1;;
74483;SDS011;62942;52.462;10.846;2022-09-28T04:53:51;13.7;;;20.9;;
74483;SDS011;62942;52.462;10.846;2022-09-28T04:55:01;13.7;;;22.4;;
74483;SDS011;62942;52.462;10.846;2022-09-28T04:56:11;13.8;;;20.1;;
74483;SDS011;62942;52.462;10.846;2022-09-28T04:57:11;13.2;;;18.7;;
74483;SDS011;62942;52.462;10.846;2022-09-28T04:58:21;13.6;;;20.2;;
74483;SDS011;62942;52.462;10.846;2022-09-28T04:59:31;13.6;;;18.3;;
74483;SDS011;62942;52.462;10.846;2022-09-28T05:00:41;13.9;;;19.7;;
74483;SDS011;62942;52.462;10.846;2022-09-28T05:01:41;13.5;;;20.1;;
74483;SDS011;62942;52.462;10.846;2022-09-28T05:02:52;13.7;;;18.6;;
74483;SDS011;62942;52.462;10.846;2022-09-28T05:03:51;14.1;;;21;;
74483;SDS011;62942;52.462;10.846;2022-09-28T05:05:01;14.2;;;19.2;;
74483;SDS011;62942;52.462;10.846;2022-09-28T05:06:12;13.7;;;18.9;;
74483;SDS011;62942;52.462;10.846;2022-09-28T05:07:21;14.1;;;21.3;;
74483;SDS011;62942;52.462;10.846;2022-09-28T05:08:31;14.8;;;21.5;;
74483;SDS011;62942;52.462;10.846;2022-09-28T05:09:31;14.5;;;20.1;;
74483;SDS011;62942;52.462;10.846;2022-09-28T05:10:31;15.1;;;20.3;;
74483;SDS011;62942;52.462;10.846;2022-09-28T05:11:41;15.1;;;21.3;;
74483;SDS011;62942;52.462;10.846;2022-09-28T05:12:51;14.5;;;20;;
74483;SDS011;62942;52.462;10.846;2022-09-28T05:14:01;14.7;;;19.5;;
74483;SDS011;62942;52.462;10.846;2022-09-28T05:15:01;14.6;;;21.8;;
74483;SDS011;62942;52.462;10.846;2022-09-28T05:16:11;14.4;;;21.3;;
74483;SDS011;62942;52.462;10.846;2022-09-28T05:17:21;14.3;;;19.8;;
74483;SDS011;62942;52.462;10.846;2022-09-28T05:18:21;13.7;;;19.5;;
74483;SDS011;62942;52.462;10.846;2022-09-28T05:19:31;13.8;;;19.7;;
74483;SDS011;62942;52.462;10.846;2022-09-28T05:20:31;13.7;;;19.4;;
74483;SDS011;62942;52.462;10.846;2022-09-28T05:21:42;13.7;;;19.5;;
74483;SDS011;62942;52.462;10.846;2022-09-28T05:22:41;14.7;;;21.9;;
74483;SDS011;62942;52.462;10.846;2022-09-28T05:23:51;14.4;;;19.3;;
74483;SDS011;62942;52.462;10.846;2022-09-28T05:25:01;14;;;19.9;;
74483;SDS011;62942;52.462;10.846;2022-09-28T05:26:01;14.8;;;20.9;;
74483;SDS011;62942;52.462;10.846;2022-09-28T05:27:11;14.5;;;19.5;;
74483;SDS011;62942;52.462;10.846;2022-09-28T05:28:11;14.3;;;20.4;;
74483;SDS011;62942;52.462;10.846;2022-09-28T05:29:21;14.3;;;19.6;;
74483;SDS011;62942;52.462;10.846;2022-09-28T05:30:31;13.9;;;20.8;;
74483;SDS011;62942;52.462;10.846;2022-09-28T05:31:31;13.9;;;18.9;;
74483;SDS011;62942;52.462;10.846;2022-09-28T05:32:31;14.3;;;20.1;;
74483;SDS011;62942;52.462;10.846;2022-09-28T05:33:41;13.7;;;20.9;;
74483;SDS011;62942;52.462;10.846;2022-09-28T05:34:41;14.2;;;20.8;;
74483;SDS011;62942;52.462;10.846;2022-09-28T05:35:51;14;;;20;;
74483;SDS011;62942;52.462;10.846;2022-09-28T05:36:51;14.2;;;19.7;;
74483;SDS011;62942;52.462;10.846;2022-09-28T05:38:01;14.2;;;21.1;;
74483;SDS011;62942;52.462;10.846;2022-09-28T05:39:01;14.1;;;18.8;;
74483;SDS011;62942;52.462;10.846;2022-09-28T05:40:11;14.2;;;21.1;;
74483;SDS011;62942;52.462;10.846;2022-09-28T05:41:21;14.3;;;20;;
74483;SDS011;62942;52.462;10.846;2022-09-28T05:42:31;14;;;20.6;;
74483;SDS011;62942;52.462;10.846;2022-09-28T05:43:41;14;;;22.5;;
74483;SDS011;62942;52.462;10.846;2022-09-28T05:44:51;14.1;;;18.8;;
74483;SDS011;62942;52.462;10.846;2022-09-28T05:45:51;13.8;;;18.8;;
74483;SDS011;62942;52.462;10.846;2022-09-28T05:47:01;14.2;;;21.5;;
74483;SDS011;62942;52.462;10.846;2022-09-28T05:48:01;14.2;;;19.3;;
74483;SDS011;62942;52.462;10.846;2022-09-28T05:49:11;14.8;;;20.9;;
74483;SDS011;62942;52.462;10.846;2022-09-28T05:50:21;13.7;;;19.2;;
74483;SDS011;62942;52.462;10.846;2022-09-28T05:51:31;14.5;;;20.3;;
74483;SDS011;62942;52.462;10.846;2022-09-28T05:52:41;14.6;;;20;;
74483;SDS011;62942;52.462;10.846;2022-09-28T05:53:41;14.6;;;20.8;;
74483;SDS011;62942;52.462;10.846;2022-09-28T05:54:51;14.2;;;21.4;;
74483;SDS011;62942;52.462;10.846;2022-09-28T05:55:51;14.1;;;20.7;;
74483;SDS011;62942;52.462;10.846;2022-09-28T05:57:01;14.1;;;19.5;;
74483;SDS011;62942;52.462;10.846;2022-09-28T05:58:11;13.8;;;20;;
74483;SDS011;62942;52.462;10.846;2022-09-28T05:59:21;13.6;;;17.8;;
74483;SDS011;62942;52.462;10.846;2022-09-28T06:00:31;13.9;;;19.7;;
74483;SDS011;62942;52.462;10.846;2022-09-28T06:01:31;14.2;;;19.8;;
74483;SDS011;62942;52.462;10.846;2022-09-28T06:02:31;14.3;;;20;;
74483;SDS011;62942;52.462;10.846;2022-09-28T06:03:41;14.4;;;21;;
74483;SDS011;62942;52.462;10.846;2022-09-28T06:04:41;13.8;;;20;;
74483;SDS011;62942;52.462;10.846;2022-09-28T06:05:51;13.7;;;18.9;;
74483;SDS011;62942;52.462;10.846;2022-09-28T06:07:01;14;;;19.9;;
74483;SDS011;62942;52.462;10.846;2022-09-28T06:08:11;14.3;;;19.7;;
74483;SDS011;62942;52.462;10.846;2022-09-28T06:09:21;14.2;;;20.3;;
74483;SDS011;62942;52.462;10.846;2022-09-28T06:10:21;14.1;;;19;;
74483;SDS011;62942;52.462;10.846;2022-09-28T06:11:31;14.4;;;20.2;;
74483;SDS011;62942;52.462;10.846;2022-09-28T06:12:41;14.4;;;21.6;;
74483;SDS011;62942;52.462;10.846;2022-09-28T06:13:51;14.1;;;21.9;;
74483;SDS011;62942;52.462;10.846;2022-09-28T06:15:01;14.6;;;22.1;;
74483;SDS011;62942;52.462;10.846;2022-09-28T06:16:01;14.3;;;19.6;;
74483;SDS011;62942;52.462;10.846;2022-09-28T06:17:11;14.7;;;22.3;;
74483;SDS011;62942;52.462;10.846;2022-09-28T06:18:11;14.8;;;21.1;;
74483;SDS011;62942;52.462;10.846;2022-09-28T06:19:21;14.5;;;20.8;;
74483;SDS011;62942;52.462;10.846;2022-09-28T06:20:21;14.4;;;21.1;;
74483;SDS011;62942;52.462;10.846;2022-09-28T06:21:31;14.8;;;20.4;;
74483;SDS011;62942;52.462;10.846;2022-09-28T06:22:40;14.7;;;20.4;;
74483;SDS011;62942;52.462;10.846;2022-09-28T06:23:41;15.1;;;20.8;;
74483;SDS011;62942;52.462;10.846;2022-09-28T06:24:41;15.2;;;21.7;;
74483;SDS011;62942;52.462;10.846;2022-09-28T06:25:51;15.7;;;21.2;;
74483;SDS011;62942;52.462;10.846;2022-09-28T06:27:01;15.6;;;22.5;;
74483;SDS011;62942;52.462;10.846;2022-09-28T06:28:11;15.6;;;23;;
74483;SDS011;62942;52.462;10.846;2022-09-28T06:29:21;15.4;;;21.6;;
74483;SDS011;62942;52.462;10.846;2022-09-28T06:30:21;15.2;;;21.6;;
74483;SDS011;62942;52.462;10.846;2022-09-28T06:31:31;14.4;;;20.1;;
74483;SDS011;62942;52.462;10.846;2022-09-28T06:32:31;15.1;;;21.6;;
74483;SDS011;62942;52.462;10.846;2022-09-28T06:33:40;14.8;;;20.1;;
74483;SDS011;62942;52.462;10.846;2022-09-28T06:34:40;15.8;;;22.6;;
74483;SDS011;62942;52.462;10.846;2022-09-28T06:35:51;14.7;;;22.1;;
74483;SDS011;62942;52.462;10.846;2022-09-28T06:37:01;14.9;;;21;;
74483;SDS011;62942;52.462;10.846;2022-09-28T06:38:11;15;;;23;;
74483;SDS011;62942;52.462;10.846;2022-09-28T06:39:21;14.5;;;20.7;;
74483;SDS011;62942;52.462;10.846;2022-09-28T06:40:31;15;;;21.5;;
74483;SDS011;62942;52.462;10.846;2022-09-28T06:41:31;15;;;21.3;;